Terminal Aerodrome Forecast
Issued by NWS

Home | Current Version | Previous Version | Text Only | Print | Product List | Glossary On
Versions: 1 2 3 4 5 6 7 8 9 10 11 12 13 14 15 16 17 18 19 20 21 22 23 24 25 26 27 28 29 30 31 32
702
FTUS42 KCAE 231124
TAFCUB
TAF
KCUB 231124Z 2312/2412 20010G17KT P6SM -SHRA BKN015 OVC035
      WS020/19035KT
      TEMPO 2312/2313 BKN008
     FM231400 24011G17KT P6SM SCT015 BKN025
     FM231600 27014G24KT P6SM FEW015 SCT250
     FM240000 27007KT P6SM SKC=

USA.gov is the U.S. government's official web portal to all federal, state and local government web resources and services.